Time;durP1;ratioP1;P1;durP2;ratioP2;P2;SDS_P1;SDS_P2;PMS_P1;PMS_P2;Temp;Humidity;BMP_temperature;BMP_pressure;BME280_temperature;BME280_humidity;BME280_pressure;Samples;Min_cycle;Max_cycle;Signal;HPM_P1;HPM_P2
2021/05/04 00:02:28;;;;;;;6.77;2.07;;;;;;;10.45;100.00;99473.91;1891920;74;26195;-73
2021/05/04 00:04:58;;;;;;;9.37;2.80;;;;;;;10.58;100.00;99468.01;1892029;76;26715;-74
2021/05/04 00:07:28;;;;;;;9.60;2.60;;;;;;;10.53;100.00;99473.13;1891964;76;26169;-73
2021/05/04 00:09:57;;;;;;;12.13;2.83;;;;;;;10.68;100.00;99473.30;1892078;76;26688;-73
2021/05/04 00:12:27;;;;;;;11.40;2.57;;;;;;;10.60;100.00;99469.91;1892065;76;26256;-73
2021/05/04 00:14:57;;;;;;;6.43;1.87;;;;;;;10.69;100.00;99468.83;1892030;76;26175;-74
2021/05/04 00:17:27;;;;;;;11.20;3.00;;;;;;;10.62;100.00;99453.17;1892081;76;26264;-74
2021/05/04 00:19:56;;;;;;;10.47;2.50;;;;;;;10.59;100.00;99455.77;1892036;76;26195;-73
2021/05/04 00:22:26;;;;;;;9.33;2.43;;;;;;;10.58;100.00;99454.95;1891983;76;26182;-74
2021/05/04 00:24:56;;;;;;;8.53;2.43;;;;;;;10.57;100.00;99463.62;1892027;76;26673;-74
2021/05/04 00:27:26;;;;;;;9.30;2.60;;;;;;;10.62;100.00;99449.00;1891934;76;26178;-74
2021/05/04 00:29:56;;;;;;;6.63;1.97;;;;;;;10.54;100.00;99452.56;1891926;76;26267;-74
2021/05/04 00:32:26;;;;;;;10.17;2.93;;;;;;;10.53;100.00;99456.47;1891887;76;26190;-74
2021/05/04 00:34:55;;;;;;;8.10;2.40;;;;;;;10.57;100.00;99456.08;1891937;76;26185;-74
2021/05/04 00:37:30;;;;;;;7.27;2.53;;;;;;;10.56;100.00;99436.98;1892102;76;26175;-74
2021/05/04 00:40:00;;;;;;;13.63;3.10;;;;;;;10.61;100.00;99452.13;1891966;76;26198;-74
2021/05/04 00:42:29;;;;;;;9.00;2.30;;;;;;;10.56;100.00;99452.25;1892047;76;26183;-74
2021/05/04 00:44:59;;;;;;;9.00;2.33;;;;;;;10.72;100.00;99464.58;1892414;76;26249;-74
2021/05/04 00:47:29;;;;;;;10.00;2.30;;;;;;;10.59;100.00;99451.05;1895420;76;26651;-74
2021/05/04 00:49:59;;;;;;;7.30;2.60;;;;;;;10.57;100.00;99453.90;1887098;76;26241;-74
2021/05/04 00:52:29;;;;;;;7.97;2.20;;;;;;;10.50;100.00;99446.02;1883620;76;26290;-74
2021/05/04 00:54:59;;;;;;;7.93;2.00;;;;;;;10.55;100.00;99454.21;1883624;76;26249;-74
2021/05/04 00:57:30;;;;;;;5.13;1.93;;;;;;;10.47;100.00;99446.09;1883588;76;26215;-74
2021/05/04 01:00:03;;;;;;;7.00;2.20;;;;;;;10.48;100.00;99446.92;1883410;76;26205;-74
2021/05/04 01:02:34;;;;;;;11.07;2.23;;;;;;;10.49;100.00;99433.27;1883748;75;26450;-74
2021/05/04 01:05:07;;;;;;;6.23;1.80;;;;;;;10.52;100.00;99432.64;1883651;76;26712;-74
2021/05/04 01:07:37;;;;;;;11.63;2.30;;;;;;;10.50;100.00;99434.34;1883489;76;26294;-74
2021/05/04 01:10:10;;;;;;;11.43;2.07;;;;;;;10.44;100.00;99425.06;1883627;76;26264;-74
2021/05/04 01:12:39;;;;;;;8.17;2.20;;;;;;;10.44;100.00;99421.73;1883534;76;26207;-74
2021/05/04 01:15:10;;;;;;;7.30;2.40;;;;;;;10.49;100.00;99422.16;1883514;76;26191;-74
2021/05/04 01:17:40;;;;;;;7.07;2.17;;;;;;;10.53;100.00;99399.56;1883588;76;26244;-74
2021/05/04 01:20:15;;;;;;;8.83;2.60;;;;;;;10.48;100.00;99394.97;1884240;76;26238;-75
2021/05/04 01:22:44;;;;;;;9.23;2.40;;;;;;;10.48;100.00;99400.52;1884027;76;26737;-74
2021/05/04 01:25:16;;;;;;;7.97;2.80;;;;;;;10.56;100.00;99400.33;1883777;76;26182;-75
2021/05/04 01:27:46;;;;;;;8.80;2.67;;;;;;;10.55;100.00;99393.13;1883909;76;26227;-75
2021/05/04 01:30:17;;;;;;;9.37;2.33;;;;;;;10.57;100.00;99399.77;1883507;76;26186;-74
2021/05/04 01:32:46;;;;;;;7.07;2.00;;;;;;;10.49;100.00;99392.45;1883555;76;26191;-74
2021/05/04 01:35:16;;;;;;;7.00;2.17;;;;;;;10.53;100.00;99394.58;1832531;78;26715;-75
2021/05/04 01:37:53;;;;;;;7.67;2.63;;;;;;;10.50;100.00;99394.66;1883749;76;26764;-74
2021/05/04 01:40:23;;;;;;;5.13;1.70;;;;;;;10.59;100.00;99407.19;1884020;76;26232;-74
2021/05/04 01:42:55;;;;;;;9.10;2.13;;;;;;;10.59;100.00;99403.84;1883926;76;26211;-75
2021/05/04 01:45:25;;;;;;;10.20;2.23;;;;;;;10.62;100.00;99401.80;1891428;76;26290;-74
2021/05/04 01:47:57;;;;;;;9.23;1.93;;;;;;;10.63;100.00;99392.34;1825310;77;26250;-74
2021/05/04 01:50:33;;;;;;;6.70;2.00;;;;;;;10.62;100.00;99399.59;1904886;75;26254;-74
2021/05/04 01:52:58;;;;;;;6.80;2.07;;;;;;;10.62;100.00;99399.59;1833390;78;26673;-74
2021/05/04 01:55:30;;;;;;;9.00;2.60;;;;;;;10.70;100.00;99405.75;1904886;75;26626;-76
2021/05/04 01:58:00;;;;;;;8.97;2.00;;;;;;;10.70;100.00;99403.80;1904872;75;26206;-74
2021/05/04 02:00:34;;;;;;;6.50;1.90;;;;;;;10.71;100.00;99414.34;1905048;75;26193;-74
2021/05/04 02:03:05;;;;;;;9.73;1.67;;;;;;;10.68;100.00;99404.70;1895524;74;26328;-74
2021/05/04 02:05:37;;;;;;;6.60;2.07;;;;;;;10.62;100.00;99407.92;1892634;76;26203;-74
2021/05/04 02:08:11;;;;;;;7.43;1.90;;;;;;;10.67;100.00;99404.44;1892898;76;26295;-73
2021/05/04 02:10:41;;;;;;;7.23;2.03;;;;;;;10.63;100.00;99403.45;1892758;76;26204;-74
2021/05/04 02:13:15;;;;;;;8.93;2.03;;;;;;;10.63;100.00;99409.00;1892738;76;26320;-73
2021/05/04 02:15:47;;;;;;;7.30;2.20;;;;;;;10.61;100.00;99411.27;1892873;76;26206;-74
2021/05/04 02:18:21;;;;;;;11.93;2.43;;;;;;;10.66;100.00;99422.23;1838798;77;26689;-74
2021/05/04 02:20:51;;;;;;;8.70;2.40;;;;;;;10.63;100.00;99422.89;1905146;75;26267;-74
2021/05/04 02:23:21;;;;;;;10.00;2.60;;;;;;;10.59;100.00;99422.45;1905135;75;26262;-74
2021/05/04 02:25:57;;;;;;;13.53;3.00;;;;;;;10.55;100.00;99428.40;1892973;75;26626;-74
2021/05/04 02:28:28;;;;;;;6.73;2.10;;;;;;;10.51;100.00;99431.00;1892752;76;26282;-74
2021/05/04 02:30:58;;;;;;;6.17;1.93;;;;;;;10.63;100.00;99428.44;1892746;76;26685;-74
2021/05/04 02:33:39;;;;;;;10.43;2.13;;;;;;;10.62;100.00;99426.80;1892664;76;26281;-74
2021/05/04 02:36:11;;;;;;;9.70;2.17;;;;;;;10.63;100.00;99420.67;1892688;76;26232;-74
2021/05/04 02:38:41;;;;;;;7.07;1.97;;;;;;;10.60;100.00;99436.59;1892532;76;26715;-74
2021/05/04 02:41:12;;;;;;;5.80;1.73;;;;;;;10.56;100.00;99430.87;1891909;76;26267;-74
2021/05/04 02:43:41;;;;;;;10.97;2.60;;;;;;;10.61;100.00;99431.30;1891961;76;26261;-74
2021/05/04 02:46:11;;;;;;;7.13;2.50;;;;;;;10.55;100.00;99444.49;1874744;76;26326;-74
2021/05/04 02:48:43;;;;;;;9.23;1.93;;;;;;;10.56;100.00;99440.58;1872290;77;26201;-74
2021/05/04 02:51:13;;;;;;;9.77;2.30;;;;;;;10.52;100.00;99452.08;1872446;77;26197;-74
2021/05/04 02:53:43;;;;;;;8.90;2.47;;;;;;;10.49;100.00;99434.09;1872178;77;26205;-74
2021/05/04 02:56:13;;;;;;;7.20;1.93;;;;;;;10.49;100.00;99434.09;1872146;77;26224;-74
2021/05/04 02:58:43;;;;;;;7.77;2.43;;;;;;;10.40;100.00;99440.72;1872261;77;26279;-74
2021/05/04 03:01:12;;;;;;;9.70;2.20;;;;;;;10.41;100.00;99445.97;1872100;77;26197;-74
2021/05/04 03:03:42;;;;;;;8.67;2.03;;;;;;;10.37;100.00;99449.70;1872195;75;26649;-74
2021/05/04 03:06:12;;;;;;;10.33;2.03;;;;;;;10.27;100.00;99441.06;1872243;77;26267;-74
2021/05/04 03:08:42;;;;;;;8.03;2.07;;;;;;;10.23;100.00;99436.46;1872264;77;26272;-74
2021/05/04 03:11:12;;;;;;;6.87;1.70;;;;;;;10.27;100.00;99438.28;1872241;77;26280;-74
2021/05/04 03:13:43;;;;;;;9.13;2.40;;;;;;;10.26;100.00;99435.28;1872164;77;26714;-74
2021/05/04 03:16:12;;;;;;;7.77;1.70;;;;;;;10.18;100.00;99439.39;1872251;77;26275;-74
2021/05/04 03:18:42;;;;;;;11.60;2.43;;;;;;;10.23;100.00;99435.90;1872254;77;26263;-74
2021/05/04 03:21:12;;;;;;;5.53;1.77;;;;;;;10.21;100.00;99433.20;1872238;77;26212;-74
2021/05/04 03:23:42;;;;;;;9.10;2.00;;;;;;;10.20;100.00;99426.83;1872359;77;26212;-74
2021/05/04 03:26:12;;;;;;;7.20;1.60;;;;;;;10.22;100.00;99430.69;1872121;77;26207;-74
2021/05/04 03:28:43;;;;;;;7.03;1.60;;;;;;;10.16;100.00;99424.44;1858844;77;26762;-74
2021/05/04 03:31:13;;;;;;;9.70;1.87;;;;;;;10.18;100.00;99427.73;1872320;77;26198;-75
2021/05/04 03:33:43;;;;;;;6.93;1.77;;;;;;;10.13;100.00;99427.83;1872266;77;26214;-74
2021/05/04 03:36:14;;;;;;;7.23;1.70;;;;;;;10.09;100.00;99434.33;1872306;77;26207;-74
2021/05/04 03:38:44;;;;;;;6.80;1.83;;;;;;;10.06;100.00;99432.98;1872267;77;26197;-74
2021/05/04 03:41:14;;;;;;;9.47;2.07;;;;;;;9.99;100.00;99431.23;1872262;77;26206;-74
2021/05/04 03:43:44;;;;;;;8.00;2.20;;;;;;;9.96;100.00;99437.42;1872129;77;26278;-75
2021/05/04 03:46:13;;;;;;;6.97;2.03;;;;;;;9.94;100.00;99436.34;1872099;77;26770;-74
2021/05/04 03:48:43;;;;;;;9.87;2.13;;;;;;;9.94;100.00;99446.05;1872180;77;26194;-75
2021/05/04 03:51:13;;;;;;;6.73;1.87;;;;;;;9.98;100.00;99440.12;1872252;77;26644;-74
2021/05/04 03:53:43;;;;;;;8.90;2.77;;;;;;;10.02;100.00;99436.14;1872201;77;26267;-74
2021/05/04 03:56:30;;;;;;;8.70;1.87;;;;;;;10.12;100.00;99440.62;1820420;79;33247;-74
2021/05/04 03:59:00;;;;;;;9.20;2.10;;;;;;;10.08;100.00;99432.67;1815508;79;26688;-74
2021/05/04 04:01:31;;;;;;;7.60;2.10;;;;;;;10.04;100.00;99438.87;1809165;77;930672;-74
2021/05/04 04:04:01;;;;;;;10.77;2.33;;;;;;;10.08;100.00;99441.00;1820803;77;26315;-74
2021/05/04 04:06:31;;;;;;;8.07;2.10;;;;;;;10.08;100.00;99426.56;1820945;78;26242;-74
2021/05/04 04:09:01;;;;;;;8.30;2.00;;;;;;;10.03;100.00;99422.53;1820853;79;26229;-75
2021/05/04 04:11:31;;;;;;;7.27;1.87;;;;;;;9.99;100.00;99432.05;1820864;78;26693;-75
2021/05/04 04:14:00;;;;;;;6.83;1.63;;;;;;;10.06;100.00;99428.25;1820999;78;26304;-75
2021/05/04 04:16:30;;;;;;;5.90;2.13;;;;;;;10.05;100.00;99418.29;1820964;78;26715;-75
2021/05/04 04:19:00;;;;;;;6.87;1.57;;;;;;;10.07;100.00;99433.24;1821100;78;26299;-75
2021/05/04 04:21:30;;;;;;;7.60;1.80;;;;;;;10.15;100.00;99428.87;1820920;79;26315;-74
2021/05/04 04:23:59;;;;;;;8.87;2.13;;;;;;;10.22;100.00;99423.19;1821071;79;26222;-75
2021/05/04 04:26:29;;;;;;;5.83;1.50;;;;;;;10.19;100.00;99422.41;1821082;78;26719;-75
2021/05/04 04:29:00;;;;;;;6.23;1.83;;;;;;;10.22;100.00;99422.36;1877769;76;26237;-74
2021/05/04 04:31:29;;;;;;;4.70;1.43;;;;;;;10.19;100.00;99425.19;1872266;77;26671;-74
2021/05/04 04:33:59;;;;;;;3.70;1.17;;;;;;;10.20;100.00;99430.17;1872267;77;26404;-74
2021/05/04 04:36:29;;;;;;;5.93;1.60;;;;;;;10.20;100.00;99421.84;1872224;77;26681;-75
2021/05/04 04:38:59;;;;;;;6.57;1.40;;;;;;;10.22;100.00;99433.46;1872202;77;26257;-74
2021/05/04 04:41:29;;;;;;;5.67;1.40;;;;;;;10.26;100.00;99424.75;1872212;77;26307;-75
2021/05/04 04:43:59;;;;;;;5.77;1.83;;;;;;;10.23;100.00;99429.52;1872336;77;26303;-74
2021/05/04 04:46:39;;;;;;;4.70;1.60;;;;;;;10.20;100.00;99435.72;1872261;77;26336;-74
2021/05/04 04:49:00;;;;;;;5.93;1.30;;;;;;;10.22;100.00;99443.17;1874456;75;26189;-74
2021/05/04 04:51:30;;;;;;;4.90;1.40;;;;;;;10.14;100.00;99453.62;1872451;77;26202;-74
2021/05/04 04:54:00;;;;;;;5.33;1.70;;;;;;;10.00;100.00;99449.52;1872310;77;26194;-74
2021/05/04 04:56:30;;;;;;;6.13;1.87;;;;;;;10.00;100.00;99473.09;1872324;77;26202;-74
2021/05/04 04:58:59;;;;;;;6.33;2.10;;;;;;;9.91;100.00;99489.67;1872413;77;26201;-74
2021/05/04 05:01:29;;;;;;;6.10;1.47;;;;;;;9.81;100.00;99497.40;1872179;77;26790;-74
2021/05/04 05:04:00;;;;;;;4.83;1.20;;;;;;;9.76;100.00;99496.95;1872315;75;26684;-74
2021/05/04 05:06:30;;;;;;;4.00;1.70;;;;;;;9.64;100.00;99511.10;1872352;77;26636;-73
2021/05/04 05:09:02;;;;;;;5.60;1.53;;;;;;;9.60;100.00;99534.47;1872380;77;26206;-74
2021/05/04 05:11:32;;;;;;;4.87;1.47;;;;;;;9.58;100.00;99538.14;1872284;77;26630;-73
2021/05/04 05:14:03;;;;;;;3.53;1.13;;;;;;;9.51;100.00;99551.58;1872345;76;26209;-73
2021/05/04 05:16:33;;;;;;;3.87;1.60;;;;;;;9.47;100.00;99555.53;1872309;77;26294;-73
2021/05/04 05:19:04;;;;;;;2.87;1.20;;;;;;;9.42;100.00;99561.18;1859054;77;26201;-73
2021/05/04 05:21:36;;;;;;;1.57;0.80;;;;;;;9.30;100.00;99565.60;1872383;77;26280;-73
2021/05/04 05:24:09;;;;;;;1.57;0.80;;;;;;;9.25;100.00;99567.08;1887678;76;26706;-74
2021/05/04 05:26:39;;;;;;;2.50;0.53;;;;;;;9.14;100.00;99579.77;1887728;76;26313;-74
2021/05/04 05:29:08;;;;;;;3.40;0.80;;;;;;;9.10;100.00;99584.84;1887764;76;26261;-74
2021/05/04 05:31:38;;;;;;;3.17;0.80;;;;;;;9.09;100.00;99585.96;1875844;76;26782;-73
2021/05/04 05:34:08;;;;;;;3.23;1.10;;;;;;;9.26;100.00;99595.05;1872415;76;26345;-74
2021/05/04 05:36:38;;;;;;;2.73;1.20;;;;;;;9.24;100.00;99591.78;1872327;77;26278;-74
2021/05/04 05:39:08;;;;;;;1.23;0.93;;;;;;;9.27;100.00;99589.78;1872346;77;26626;-74
2021/05/04 05:41:38;;;;;;;2.73;0.83;;;;;;;9.26;100.00;99598.65;1872388;77;26275;-74
2021/05/04 05:44:08;;;;;;;3.47;0.90;;;;;;;9.19;100.00;99596.03;1872256;77;26275;-74
2021/05/04 05:46:38;;;;;;;2.17;0.80;;;;;;;9.12;100.00;99617.20;1875539;76;26194;-74
2021/05/04 05:49:10;;;;;;;1.73;0.70;;;;;;;9.13;100.00;99623.00;1879556;76;26726;-74
2021/05/04 05:51:40;;;;;;;1.47;0.70;;;;;;;9.17;100.00;99623.20;1892122;76;26267;-75
2021/05/04 05:54:10;;;;;;;2.17;0.50;;;;;;;9.11;100.00;99634.38;1892110;76;26261;-74
2021/05/04 05:56:39;;;;;;;1.10;0.53;;;;;;;9.05;100.00;99645.88;1891938;76;26738;-73
2021/05/04 05:59:10;;;;;;;2.67;0.83;;;;;;;8.92;100.00;99643.89;1891995;76;26206;-73
2021/05/04 06:01:40;;;;;;;1.50;0.77;;;;;;;8.89;100.00;99634.25;1891968;76;26214;-72
2021/05/04 06:04:10;;;;;;;1.83;0.70;;;;;;;8.99;100.00;99647.07;1891949;74;26202;-73
2021/05/04 06:06:40;;;;;;;1.87;0.40;;;;;;;9.06;100.00;99673.83;1891960;76;26638;-72
2021/05/04 06:09:09;;;;;;;0.80;0.60;;;;;;;9.10;100.00;99663.23;1891966;76;26212;-73
2021/05/04 06:11:39;;;;;;;1.37;0.60;;;;;;;9.13;100.00;99672.86;1892037;76;26223;-73
2021/05/04 06:14:09;;;;;;;1.57;0.50;;;;;;;9.17;100.00;99673.90;1891933;76;26673;-73
2021/05/04 06:16:39;;;;;;;2.80;0.50;;;;;;;9.14;100.00;99672.57;1891936;76;26287;-73
2021/05/04 06:19:09;;;;;;;2.27;0.80;;;;;;;9.16;100.00;99672.84;1891920;76;26283;-72
2021/05/04 06:21:39;;;;;;;1.63;0.50;;;;;;;9.14;100.00;99676.73;1891886;76;26300;-72
2021/05/04 06:24:09;;;;;;;1.33;0.50;;;;;;;9.17;100.00;99674.45;1891932;76;26677;-73
2021/05/04 06:26:39;;;;;;;2.10;0.70;;;;;;;9.20;100.00;99697.42;1892036;76;26233;-72
2021/05/04 06:29:09;;;;;;;1.37;0.80;;;;;;;9.16;100.00;99705.48;1891912;76;26221;-72
2021/05/04 06:31:39;;;;;;;1.70;0.73;;;;;;;9.21;100.00;99715.66;1891891;76;26276;-72
2021/05/04 06:34:11;;;;;;;2.37;0.57;;;;;;;9.19;100.00;99711.00;1892065;76;26214;-72
2021/05/04 06:36:40;;;;;;;4.30;0.90;;;;;;;9.22;100.00;99722.30;1891972;76;26252;-73
2021/05/04 06:39:10;;;;;;;3.20;0.60;;;;;;;9.25;100.00;99698.13;1891891;76;26171;-73
2021/05/04 06:41:40;;;;;;;2.27;0.40;;;;;;;9.28;100.00;99732.17;1892396;76;26248;-73
2021/05/04 06:44:09;;;;;;;3.70;0.60;;;;;;;9.33;100.00;99707.12;1891872;76;26341;-73
2021/05/04 06:46:39;;;;;;;2.93;0.60;;;;;;;9.39;100.00;99729.47;1891938;76;26205;-73
2021/05/04 06:49:09;;;;;;;1.07;0.40;;;;;;;9.52;100.00;99738.94;1820151;77;26828;-72
2021/05/04 06:51:39;;;;;;;3.43;0.60;;;;;;;9.60;100.00;99725.19;1895638;76;26210;-73
2021/05/04 06:54:09;;;;;;;3.90;0.80;;;;;;;9.59;100.00;99737.96;1862042;77;26727;-73
2021/05/04 06:56:38;;;;;;;2.60;0.60;;;;;;;9.60;100.00;99749.31;1892880;76;26414;-72
2021/05/04 06:59:08;;;;;;;1.70;0.50;;;;;;;9.73;100.00;99749.91;1891968;76;26626;-72
2021/05/04 07:01:39;;;;;;;2.23;0.63;;;;;;;9.89;100.00;99744.88;1892094;76;26252;-72
2021/05/04 07:04:09;;;;;;;2.30;0.60;;;;;;;9.91;100.00;99764.25;1891883;74;26257;-72
2021/05/04 07:06:39;;;;;;;1.43;0.60;;;;;;;9.89;100.00;99758.73;1891993;76;26212;-72
2021/05/04 07:09:09;;;;;;;2.00;0.57;;;;;;;9.99;100.00;99777.41;1891914;76;26267;-72
2021/05/04 07:11:38;;;;;;;2.53;0.90;;;;;;;10.01;100.00;99789.00;1892028;76;26634;-71
2021/05/04 07:14:08;;;;;;;1.80;0.60;;;;;;;10.05;100.00;99784.48;1892211;76;26634;-71
2021/05/04 07:16:39;;;;;;;1.90;0.87;;;;;;;10.06;100.00;99780.58;1892133;76;26179;-72
2021/05/04 07:19:09;;;;;;;2.97;0.70;;;;;;;10.06;100.00;99797.23;1891997;76;26287;-73
2021/05/04 07:21:39;;;;;;;1.47;0.50;;;;;;;10.17;100.00;99791.52;1892047;76;26222;-71
2021/05/04 07:24:11;;;;;;;2.27;0.80;;;;;;;10.20;100.00;99799.22;1892007;76;26637;-72
2021/05/04 07:26:40;;;;;;;0.53;0.40;;;;;;;10.23;100.00;99804.14;1892048;76;26189;-72
2021/05/04 07:29:10;;;;;;;1.53;0.50;;;;;;;10.14;100.00;99810.15;1892187;76;26241;-72
2021/05/04 07:31:41;;;;;;;1.53;0.60;;;;;;;10.12;100.00;99820.16;1892091;76;26685;-72
2021/05/04 07:34:12;;;;;;;1.20;0.40;;;;;;;10.20;100.00;99817.25;1892089;76;26203;-72
2021/05/04 07:36:42;;;;;;;2.03;0.60;;;;;;;10.31;100.00;99817.33;1892121;76;26204;-73
2021/05/04 07:39:12;;;;;;;1.80;0.63;;;;;;;10.34;100.00;99811.15;1891930;76;26641;-74
2021/05/04 07:41:42;;;;;;;1.70;0.70;;;;;;;10.39;100.00;99823.54;1891976;76;26248;-72
2021/05/04 07:44:11;;;;;;;1.90;0.50;;;;;;;10.42;100.00;99811.81;1892047;76;26649;-71
2021/05/04 07:46:41;;;;;;;1.83;0.60;;;;;;;10.46;100.00;99819.21;1892042;76;26684;-72
2021/05/04 07:49:17;;;;;;;1.53;0.67;;;;;;;10.52;100.00;99813.56;1879802;76;26253;-73
2021/05/04 07:51:42;;;;;;;1.37;0.63;;;;;;;10.60;100.00;99830.88;1872392;75;26732;-74
2021/05/04 07:54:12;;;;;;;2.57;0.63;;;;;;;10.64;100.00;99835.50;1872138;77;26234;-73
2021/05/04 07:56:42;;;;;;;1.67;0.50;;;;;;;10.75;100.00;99845.80;1872231;77;26685;-73
2021/05/04 07:59:14;;;;;;;3.97;0.60;;;;;;;10.71;100.00;99831.72;1872117;77;26209;-73
2021/05/04 08:01:44;;;;;;;4.57;0.63;;;;;;;10.84;100.00;99835.61;1872232;77;26312;-73
2021/05/04 08:04:15;;;;;;;2.27;0.60;;;;;;;11.07;100.00;99832.32;1872137;77;26212;-74
2021/05/04 08:06:44;;;;;;;2.73;0.60;;;;;;;11.25;100.00;99839.69;1872214;77;26284;-73
2021/05/04 08:09:14;;;;;;;0.80;0.50;;;;;;;11.34;100.00;99851.11;1872093;77;26221;-73
2021/05/04 08:11:44;;;;;;;3.03;0.50;;;;;;;11.48;100.00;99851.63;1872339;77;26263;-73
2021/05/04 08:14:14;;;;;;;1.23;0.60;;;;;;;11.48;100.00;99846.05;1872212;77;26189;-72
2021/05/04 08:16:44;;;;;;;1.60;0.60;;;;;;;11.41;100.00;99850.69;1872167;77;26806;-73
2021/05/04 08:19:15;;;;;;;2.53;0.50;;;;;;;11.57;100.00;99860.29;1872306;77;26205;-73
2021/05/04 08:21:47;;;;;;;1.30;0.70;;;;;;;11.63;100.00;99856.82;1872173;77;26263;-73
2021/05/04 08:24:18;;;;;;;2.83;0.93;;;;;;;11.76;100.00;99855.40;1872421;76;26278;-75
2021/05/04 08:26:48;;;;;;;1.93;0.50;;;;;;;11.67;100.00;99881.47;1872361;77;26669;-74
2021/05/04 08:29:18;;;;;;;1.40;0.50;;;;;;;11.70;100.00;99872.48;1872265;77;26655;-74
2021/05/04 08:31:48;;;;;;;2.00;0.70;;;;;;;11.90;100.00;99876.73;1872423;76;26205;-75
2021/05/04 08:34:20;;;;;;;1.53;0.50;;;;;;;11.74;100.00;99878.53;1872377;77;26671;-74
2021/05/04 08:36:50;;;;;;;2.30;0.60;;;;;;;11.68;100.00;99879.75;1872630;76;26660;-74
2021/05/04 08:39:19;;;;;;;2.93;0.60;;;;;;;11.74;100.00;99890.22;1872402;76;26252;-74
2021/05/04 08:41:50;;;;;;;3.73;1.00;;;;;;;11.77;100.00;99896.53;1872158;77;26289;-74
2021/05/04 08:44:21;;;;;;;3.33;0.80;;;;;;;11.81;100.00;99886.41;1872258;77;26256;-74
2021/05/04 08:46:52;;;;;;;3.40;0.60;;;;;;;11.63;100.00;99904.11;1872093;77;26242;-73
2021/05/04 08:49:22;;;;;;;2.50;0.73;;;;;;;11.83;100.00;99910.58;1880193;76;26645;-74
2021/05/04 08:51:52;;;;;;;2.67;0.70;;;;;;;12.09;100.00;99916.32;1891952;76;26249;-74
2021/05/04 08:54:22;;;;;;;1.83;0.70;;;;;;;11.86;100.00;99899.63;1891903;76;26663;-74
2021/05/04 08:56:52;;;;;;;1.77;0.60;;;;;;;11.82;100.00;99905.58;1891855;76;26600;-74
2021/05/04 08:59:22;;;;;;;1.20;0.60;;;;;;;11.99;100.00;99915.18;1891845;76;26248;-74
2021/05/04 09:01:52;;;;;;;2.77;0.90;;;;;;;12.29;100.00;99912.42;1892036;74;26256;-74
2021/05/04 09:04:33;;;;;;;2.23;0.70;;;;;;;12.35;100.00;99917.30;1891987;76;26620;-74
2021/05/04 09:07:17;;;;;;;2.53;0.50;;;;;;;12.14;100.00;99923.16;1892417;76;26646;-74
2021/05/04 09:10:11;;;;;;;1.80;0.60;;;;;;;12.30;100.00;99933.56;1892074;76;26290;-74
2021/05/04 09:12:43;;;;;;;1.00;0.60;;;;;;;12.31;100.00;99928.26;1891746;76;26182;-74
2021/05/04 09:16:02;;;;;;;2.57;0.70;;;;;;;12.44;100.00;99941.02;1891726;74;26260;-74
2021/05/04 09:19:06;;;;;;;1.83;0.60;;;;;;;12.25;100.00;99926.73;1890730;74;26186;-74
2021/05/04 09:21:34;;;;;;;2.20;0.50;;;;;;;12.31;100.00;99938.57;1890307;74;26174;-73
2021/05/04 09:24:30;;;;;;;1.93;0.60;;;;;;;12.19;100.00;99946.09;1892061;76;26189;-74
2021/05/04 09:27:06;;;;;;;1.17;0.50;;;;;;;12.06;100.00;99941.45;1892043;76;26702;-74
2021/05/04 09:29:39;;;;;;;2.13;0.73;;;;;;;12.04;100.00;99951.23;1891927;76;26182;-74
2021/05/04 09:32:15;;;;;;;2.90;0.70;;;;;;;12.13;100.00;99954.34;1892006;76;26247;-74
2021/05/04 09:34:51;;;;;;;1.73;0.63;;;;;;;12.17;100.00;99968.44;1891954;76;26622;-74
2021/05/04 09:37:36;;;;;;;1.33;0.50;;;;;;;12.13;100.00;99971.61;1891937;76;26646;-74
2021/05/04 09:40:22;;;;;;;2.53;1.07;;;;;;;12.24;100.00;99977.16;1892076;76;26218;-74
2021/05/04 09:43:03;;;;;;;2.33;0.60;;;;;;;12.14;100.00;99985.79;1891914;76;26177;-74
2021/05/04 09:45:34;;;;;;;3.20;0.80;;;;;;;12.13;100.00;99996.66;1891887;76;26186;-74
2021/05/04 09:48:32;;;;;;;2.13;0.80;;;;;;;12.16;100.00;100000.20;1891919;76;26618;-74
2021/05/04 09:51:04;;;;;;;2.53;0.80;;;;;;;12.24;100.00;100005.00;1879322;75;26400;-74
2021/05/04 09:53:40;;;;;;;2.00;0.60;;;;;;;12.14;100.00;100001.93;1892069;76;26206;-75
2021/05/04 09:56:11;;;;;;;2.77;0.60;;;;;;;12.21;100.00;99997.30;1892041;76;26213;-74
2021/05/04 09:58:43;;;;;;;3.20;1.00;;;;;;;12.24;100.00;100000.26;1892021;76;26182;-75
2021/05/04 10:01:14;;;;;;;2.37;0.77;;;;;;;12.30;100.00;100005.97;1891910;76;26649;-75
2021/05/04 10:03:47;;;;;;;2.53;0.70;;;;;;;12.21;100.00;100014.00;1891894;74;26213;-74
2021/05/04 10:06:18;;;;;;;3.73;0.97;;;;;;;12.36;100.00;100016.98;1891914;76;26263;-75
2021/05/04 10:08:49;;;;;;;1.60;0.70;;;;;;;12.47;100.00;100011.39;1891959;76;26659;-74
2021/05/04 10:11:21;;;;;;;1.37;0.60;;;;;;;12.65;100.00;100007.00;1891933;76;26296;-74
2021/05/04 10:13:55;;;;;;;1.90;1.00;;;;;;;12.66;100.00;100036.48;1892044;76;26247;-74
2021/05/04 10:16:26;;;;;;;2.57;0.73;;;;;;;12.58;100.00;100019.75;1892059;76;26260;-74
2021/05/04 10:19:00;;;;;;;1.23;0.50;;;;;;;12.81;100.00;100027.48;1892037;76;26656;-74
2021/05/04 10:21:31;;;;;;;3.47;1.30;;;;;;;12.71;100.00;100022.99;1891998;76;26229;-74
2021/05/04 10:24:01;;;;;;;2.17;0.70;;;;;;;12.59;100.00;100019.98;1892014;76;26628;-74
2021/05/04 10:26:33;;;;;;;0.77;0.50;;;;;;;12.92;100.00;100032.44;1892040;76;26182;-74
2021/05/04 10:29:07;;;;;;;2.13;0.53;;;;;;;12.97;100.00;100025.91;1892202;76;26292;-73
2021/05/04 10:31:41;;;;;;;1.13;0.80;;;;;;;13.13;100.00;100029.97;1892297;76;26265;-74
2021/05/04 10:34:32;;;;;;;1.77;0.80;;;;;;;13.27;100.00;100043.77;1892174;76;26856;-73
2021/05/04 10:37:03;;;;;;;2.73;0.70;;;;;;;13.13;100.00;100048.09;1892122;76;26673;-74
2021/05/04 10:39:38;;;;;;;1.33;0.50;;;;;;;12.91;100.00;100037.80;1892021;76;26353;-74
2021/05/04 10:42:09;;;;;;;2.80;0.90;;;;;;;12.86;100.00;100056.05;1892175;76;26194;-74
2021/05/04 10:45:10;;;;;;;2.70;0.67;;;;;;;12.87;100.00;100055.47;1892033;76;26272;-75
2021/05/04 10:47:54;;;;;;;1.70;0.50;;;;;;;13.00;100.00;100065.14;1892025;76;26530;-74
2021/05/04 10:50:28;;;;;;;1.30;0.80;;;;;;;13.06;100.00;100061.63;1891108;74;26680;-74
2021/05/04 10:53:00;;;;;;;2.40;0.50;;;;;;;13.11;100.00;100074.89;1893194;75;26233;-74
2021/05/04 10:56:16;;;;;;;1.23;0.57;;;;;;;13.06;100.00;100069.42;1892040;76;26385;-74
2021/05/04 10:58:48;;;;;;;2.00;0.50;;;;;;;13.13;100.00;100078.77;1886841;76;26240;-73
2021/05/04 11:01:18;;;;;;;2.13;0.70;;;;;;;13.02;100.00;100068.41;1892026;76;26649;-73
2021/05/04 11:03:50;;;;;;;1.30;0.60;;;;;;;13.01;100.00;100080.70;1892107;74;26218;-74
2021/05/04 11:06:42;;;;;;;1.40;0.50;;;;;;;13.16;100.00;100071.97;1891971;76;26245;-74
2021/05/04 11:09:20;;;;;;;1.90;0.80;;;;;;;13.40;100.00;100093.88;1891992;76;26178;-74
2021/05/04 11:11:52;;;;;;;2.13;0.73;;;;;;;13.36;100.00;100080.32;1891965;76;26213;-74
2021/05/04 11:14:27;;;;;;;1.23;0.40;;;;;;;13.50;100.00;100095.55;1891968;76;26194;-74
2021/05/04 11:17:09;;;;;;;1.90;0.60;;;;;;;13.31;100.00;100088.00;1891973;76;26255;-74
2021/05/04 11:19:41;;;;;;;4.20;0.70;;;;;;;13.16;100.00;100085.09;1892143;76;26207;-74
2021/05/04 11:22:18;;;;;;;0.83;0.47;;;;;;;13.31;100.00;100080.46;1892074;76;26692;-74
2021/05/04 11:24:50;;;;;;;2.60;0.70;;;;;;;13.36;100.00;100101.81;1892061;76;26709;-74
2021/05/04 11:27:30;;;;;;;1.30;0.70;;;;;;;13.50;100.00;100111.73;1892089;76;26326;-74
2021/05/04 11:30:03;;;;;;;3.10;1.10;;;;;;;12.98;100.00;100148.83;1892967;75;26181;-74
2021/05/04 11:32:45;;;;;;;2.97;0.80;;;;;;;12.09;100.00;100155.71;1892052;76;26214;-74
2021/05/04 11:35:16;;;;;;;2.90;0.70;;;;;;;11.99;100.00;100168.45;1892131;76;26178;-74
2021/05/04 11:37:49;;;;;;;1.63;0.60;;;;;;;11.97;100.00;100157.65;1891916;76;26634;-74
2021/05/04 11:40:24;;;;;;;0.80;0.57;;;;;;;12.12;100.00;100166.22;1891857;76;26271;-74
2021/05/04 11:42:57;;;;;;;2.57;1.20;;;;;;;12.28;100.00;100157.20;1891930;76;26185;-75
2021/05/04 11:45:29;;;;;;;3.00;0.63;;;;;;;12.46;100.00;100154.01;1891944;76;26361;-74
2021/05/04 11:48:00;;;;;;;2.50;0.80;;;;;;;12.49;100.00;100143.65;1891904;76;26185;-74